Strona główna
METAR-TAF:

METAR-TAF

Lotnisko :

Port lotniczy Jassy

Jassy, Rumunia

Szerokość geograficzna: 47-10N, Długość geograficzna: 027-38E, wysokość: 102 m

Aktualna obserwacja pogody

Raport powstał 10 minut temu, godzina 21:30 UTC
Wiatr 4 kt od południowo-południowy zachód
Temperatura -2°C
Wilgotność 74%
Ciśnienie 1031 hPa
Widzialność 10 km lub więcej
Brak chmur poniżej 1500 m i brak chmur cumulonimbus

METAR: LRIA 232130Z 20004KT CAVOK M02/M06 Q1031

czas: 23:40 (21:40 UTC)

Prognoza

Raport powstał 1 godzina i 40 minut temu, godzina 20:00 UTC
Prognoza ważna od 23 godzina 21 UTC do 24 godzina 06 UTC
Wiatr 4 kt z kierunków zmiennych
Widzialność 10 km lub więcej
Brak chmur poniżej 1500 m i brak chmur cumulonimbus

TAF: LRIA 232000Z 2321/2406 VRB04KT CAVOK

Obserwacja i prognoza pogody dla ponad 4000 lotnisk (raport METAR i TAF).

Dostępne stacje oznaczono żółtymi i czerwonymi punktami na mapie.

Najedź kursorem aby zobaczyć nazwę stacji.

Kliknij aby zobaczyć obserwacje i prognozy pogody.

Aby zmienić mapę: kliknij na zielony przycisk z czarnym krzyżykiem, aby powiększyć; na zielony przycisk z myślnikiem, aby pomniejszyć; na zielone strzałki, aby przejść do map sąsiednich.


METAR-TAF: